createdAt,value
2019-01-21T00:02:18.890Z,15.40
2019-01-21T00:04:48.606Z,15.90
2019-01-21T00:07:20.754Z,15.53
2019-01-21T00:10:18.627Z,17.90
2019-01-21T00:13:06.176Z,19.00
2019-01-21T00:15:55.287Z,18.35
2019-01-21T00:18:42.930Z,18.50
2019-01-21T00:21:30.259Z,19.35
2019-01-21T00:24:18.265Z,17.45
2019-01-21T00:27:05.436Z,17.98
2019-01-21T00:29:53.740Z,18.82
2019-01-21T00:32:42.239Z,18.60
2019-01-21T00:35:11.327Z,17.62
2019-01-21T00:37:40.525Z,16.30
2019-01-21T00:40:10.800Z,14.98
2019-01-21T00:42:40.352Z,15.53
2019-01-21T00:45:11.026Z,15.43
2019-01-21T00:47:39.958Z,16.07
2019-01-21T00:50:09.512Z,15.63
2019-01-21T00:52:38.572Z,17.07
2019-01-21T00:55:11.980Z,15.58
2019-01-21T00:57:41.002Z,15.95
2019-01-21T01:00:16.871Z,15.90
2019-01-21T01:02:45.825Z,17.48
2019-01-21T01:05:18.725Z,17.73
2019-01-21T01:07:48.230Z,17.77
2019-01-21T01:10:21.848Z,18.05
2019-01-21T01:12:50.930Z,19.57
2019-01-21T01:15:20.613Z,19.30
2019-01-21T01:17:50.268Z,17.48
2019-01-21T01:20:20.949Z,18.48
2019-01-21T01:22:49.881Z,17.23
2019-01-21T01:25:19.728Z,19.07
2019-01-21T01:27:51.481Z,19.55
2019-01-21T01:30:21.704Z,18.90
2019-01-21T01:32:51.045Z,17.35
2019-01-21T01:35:20.293Z,17.25
2019-01-21T01:37:51.025Z,17.85
2019-01-21T01:40:21.165Z,18.52
2019-01-21T01:42:50.362Z,18.12
2019-01-21T01:45:26.212Z,18.17
2019-01-21T01:47:59.399Z,17.12
2019-01-21T01:50:32.217Z,18.52
2019-01-21T01:53:03.884Z,17.57
2019-01-21T01:55:33.363Z,19.48
2019-01-21T01:58:04.134Z,19.85
2019-01-21T02:00:33.805Z,19.17
2019-01-21T02:03:02.993Z,19.80
2019-01-21T02:05:32.065Z,19.15
2019-01-21T02:08:01.511Z,21.30
2019-01-21T02:10:32.979Z,21.90
2019-01-21T02:13:02.037Z,20.72
2019-01-21T02:15:31.860Z,21.87
2019-01-21T02:18:01.900Z,21.57
2019-01-21T02:20:32.004Z,23.70
2019-01-21T02:23:05.854Z,21.60
2019-01-21T02:25:46.815Z,23.12
2019-01-21T02:28:55.615Z,22.87
2019-01-21T02:32:08.719Z,23.05
2019-01-21T02:34:55.892Z,22.22
2019-01-21T02:38:21.508Z,23.52
2019-01-21T02:41:53.040Z,23.73
2019-01-21T02:44:55.114Z,24.95
2019-01-21T02:47:42.305Z,23.52
2019-01-21T02:50:54.047Z,23.90
2019-01-21T02:54:03.893Z,23.95
2019-01-21T02:56:50.741Z,24.43
2019-01-21T03:00:03.740Z,23.38
2019-01-21T03:03:30.163Z,22.42
2019-01-21T03:06:35.313Z,23.25
2019-01-21T03:09:53.294Z,24.52
2019-01-21T03:12:50.027Z,23.22
2019-01-21T03:15:52.479Z,21.35
2019-01-21T03:19:01.673Z,21.90
2019-01-21T03:22:24.422Z,20.48
2019-01-21T03:25:49.690Z,22.55
2019-01-21T03:29:01.200Z,25.02
2019-01-21T03:32:30.396Z,27.20
2019-01-21T03:35:42.921Z,24.60
2019-01-21T03:39:02.397Z,26.45
2019-01-21T03:41:58.317Z,26.35
2019-01-21T03:45:14.374Z,24.25
2019-01-21T03:48:22.945Z,26.87
2019-01-21T03:51:37.170Z,27.48
2019-01-21T03:54:42.161Z,26.10
2019-01-21T03:57:57.562Z,25.15
2019-01-21T04:01:23.168Z,25.50
2019-01-21T04:04:48.438Z,27.60
2019-01-21T04:07:37.419Z,25.50
2019-01-21T04:10:38.732Z,26.57
2019-01-21T04:13:24.888Z,25.27
2019-01-21T04:16:31.994Z,25.65
2019-01-21T04:19:53.856Z,25.32
2019-01-21T04:22:47.999Z,25.25
2019-01-21T04:26:03.063Z,32.53
2019-01-21T04:28:54.721Z,31.00
2019-01-21T04:32:04.864Z,32.53
2019-01-21T04:35:05.535Z,28.27
2019-01-21T04:38:06.147Z,33.25
2019-01-21T04:41:33.088Z,31.17
2019-01-21T04:44:40.958Z,31.25
2019-01-21T04:47:46.603Z,34.83
2019-01-21T04:51:06.901Z,35.88
2019-01-21T04:54:04.004Z,30.12
2019-01-21T04:57:00.998Z,32.08
2019-01-21T05:00:21.093Z,31.17
2019-01-21T05:03:30.252Z,31.25
2019-01-21T05:06:37.447Z,30.08
2019-01-21T05:09:30.342Z,31.05
2019-01-21T05:12:41.665Z,30.15
2019-01-21T05:15:47.303Z,30.30
2019-01-21T05:19:13.059Z,33.33
2019-01-21T05:22:02.657Z,33.10
2019-01-21T05:25:18.980Z,28.73
2019-01-21T05:28:41.627Z,32.70
2019-01-21T05:31:51.427Z,31.33
2019-01-21T05:34:58.142Z,31.02
2019-01-21T05:38:22.684Z,29.52
2019-01-21T05:41:39.082Z,30.75
2019-01-21T05:44:45.901Z,32.53
2019-01-21T05:47:44.024Z,31.65
2019-01-21T05:50:43.340Z,30.75
2019-01-21T05:54:11.565Z,28.90
2019-01-21T05:57:31.646Z,28.65
2019-01-21T06:00:23.890Z,29.32
2019-01-21T06:03:31.344Z,28.83
2019-01-21T06:06:45.266Z,29.90
2019-01-21T06:10:10.754Z,34.92
2019-01-21T06:13:10.639Z,34.48
2019-01-21T06:16:25.072Z,33.38
2019-01-21T06:19:42.987Z,33.30
2019-01-21T06:22:53.196Z,34.53
2019-01-21T06:25:55.130Z,32.78
2019-01-21T06:29:26.907Z,31.02
2019-01-21T06:32:24.617Z,31.73
2019-01-21T06:35:01.604Z,35.38
2019-01-21T06:37:59.346Z,33.85
2019-01-21T06:41:31.798Z,34.18
2019-01-21T06:44:38.099Z,35.30
2019-01-21T06:47:26.029Z,37.35
2019-01-21T06:50:12.071Z,37.13
2019-01-21T06:53:19.470Z,35.10
2019-01-21T06:56:31.096Z,36.03
2019-01-21T06:59:35.793Z,37.53
2019-01-21T07:02:35.149Z,36.45
2019-01-21T07:05:35.735Z,38.00
2019-01-21T07:08:49.510Z,36.80
2019-01-21T07:11:45.889Z,37.85
2019-01-21T07:15:03.287Z,40.92
2019-01-21T07:18:08.918Z,37.33
2019-01-21T07:21:23.975Z,40.58
2019-01-21T07:24:48.345Z,35.55
2019-01-21T07:27:55.450Z,38.00
2019-01-21T07:31:28.194Z,34.30
2019-01-21T07:34:26.872Z,36.23
2019-01-21T07:37:30.082Z,35.13
2019-01-21T07:40:28.033Z,35.43
2019-01-21T07:43:40.156Z,36.77
2019-01-21T07:46:59.903Z,36.98
2019-01-21T07:49:54.987Z,35.92
2019-01-21T07:52:40.135Z,36.05
2019-01-21T07:55:54.634Z,38.95
2019-01-21T07:59:17.662Z,36.98
2019-01-21T08:02:02.283Z,36.30
2019-01-21T08:05:13.564Z,38.20
2019-01-21T08:08:15.854Z,38.50
2019-01-21T08:11:26.128Z,37.35
2019-01-21T08:14:20.527Z,41.13
2019-01-21T08:17:52.631Z,39.60
2019-01-21T08:20:57.590Z,37.03
2019-01-21T08:23:57.254Z,36.95
2019-01-21T08:27:12.787Z,37.65
2019-01-21T08:30:19.026Z,33.70
2019-01-21T08:33:14.623Z,31.48
2019-01-21T08:35:57.813Z,30.67
2019-01-21T08:39:38.927Z,30.20
2019-01-21T08:42:57.857Z,27.80
2019-01-21T08:46:09.403Z,28.03
2019-01-21T08:49:39.105Z,38.00
2019-01-21T08:52:37.225Z,30.60
2019-01-21T08:55:59.756Z,30.60
2019-01-21T08:59:16.117Z,26.00
2019-01-21T09:02:41.486Z,27.07
2019-01-21T09:05:35.410Z,27.00
2019-01-21T09:08:44.933Z,28.40
2019-01-21T09:11:50.177Z,28.67
2019-01-21T09:15:23.124Z,27.60
2019-01-21T09:18:14.639Z,30.10
2019-01-21T09:21:14.788Z,25.02
2019-01-21T09:24:06.608Z,27.25
2019-01-21T09:27:13.297Z,32.00
2019-01-21T09:30:19.841Z,25.25
2019-01-21T09:33:51.092Z,25.00
2019-01-21T09:36:41.248Z,25.95
2019-01-21T09:39:43.031Z,26.20
2019-01-21T09:43:14.931Z,26.40
2019-01-21T09:46:14.822Z,28.98
2019-01-21T09:48:45.377Z,28.05
2019-01-21T09:51:15.413Z,30.80
2019-01-21T09:53:53.289Z,31.63
2019-01-21T09:56:23.855Z,29.00
2019-01-21T09:58:57.548Z,26.07
2019-01-21T10:01:27.020Z,25.03
2019-01-21T10:03:58.281Z,25.83
2019-01-21T10:06:42.979Z,27.37
2019-01-21T10:10:00.298Z,26.43
2019-01-21T10:13:41.676Z,26.47
2019-01-21T10:16:30.073Z,26.03
2019-01-21T10:19:27.264Z,26.33
2019-01-21T10:22:53.231Z,27.03
2019-01-21T10:26:22.198Z,24.53
2019-01-21T10:29:19.945Z,25.77
2019-01-21T10:32:38.607Z,24.93
2019-01-21T10:35:32.194Z,26.00
2019-01-21T10:38:51.788Z,24.97
2019-01-21T10:41:59.007Z,23.67
2019-01-21T10:44:53.337Z,25.53
2019-01-21T10:47:49.233Z,24.93
2019-01-21T10:50:48.386Z,26.20
2019-01-21T10:53:37.005Z,25.90
2019-01-21T10:56:34.704Z,25.27
2019-01-21T10:59:55.558Z,23.93
2019-01-21T11:03:01.113Z,26.13
2019-01-21T11:06:27.058Z,23.83
2019-01-21T11:09:26.640Z,23.90
2019-01-21T11:12:59.369Z,25.73
2019-01-21T11:16:03.820Z,25.10
2019-01-21T11:19:04.078Z,22.67
2019-01-21T11:21:51.359Z,22.23
2019-01-21T11:25:03.632Z,22.73
2019-01-21T11:28:04.749Z,23.20
2019-01-21T11:31:19.022Z,23.77
2019-01-21T11:34:43.905Z,23.47
2019-01-21T11:37:59.529Z,23.63
2019-01-21T11:40:46.302Z,23.27
2019-01-21T11:43:56.742Z,25.33
2019-01-21T11:46:51.819Z,24.63
2019-01-21T11:49:33.881Z,25.83
2019-01-21T11:52:44.488Z,26.50
2019-01-21T11:55:55.730Z,24.90
2019-01-21T11:59:15.230Z,26.17
2019-01-21T12:02:31.101Z,25.17
2019-01-21T12:05:46.869Z,24.47
2019-01-21T12:08:54.810Z,24.17
2019-01-21T12:12:03.991Z,25.17
2019-01-21T12:15:10.624Z,23.97
2019-01-21T12:18:16.110Z,23.03
2019-01-21T12:21:13.206Z,23.97
2019-01-21T12:24:04.573Z,22.33
2019-01-21T12:26:52.211Z,23.87
2019-01-21T12:30:22.210Z,22.23
2019-01-21T12:33:32.145Z,23.97
2019-01-21T12:36:24.259Z,22.83
2019-01-21T12:39:30.326Z,23.60
2019-01-21T12:42:26.020Z,21.83
2019-01-21T12:45:37.703Z,23.40
2019-01-21T12:49:00.933Z,21.93
2019-01-21T12:51:56.778Z,22.93
2019-01-21T12:55:17.709Z,23.30
2019-01-21T12:58:14.045Z,21.57
2019-01-21T13:01:27.827Z,22.73
2019-01-21T13:04:38.146Z,21.80
2019-01-21T13:08:10.608Z,20.40
2019-01-21T13:11:20.948Z,21.07
2019-01-21T13:14:34.041Z,20.73
2019-01-21T13:17:42.892Z,21.47
2019-01-21T13:20:56.560Z,22.13
2019-01-21T13:24:07.374Z,20.73
2019-01-21T13:27:08.589Z,21.47
2019-01-21T13:30:04.167Z,21.27
2019-01-21T13:33:01.846Z,21.47
2019-01-21T13:35:44.588Z,19.13
2019-01-21T13:38:55.503Z,21.17
2019-01-21T13:41:58.016Z,20.80
2019-01-21T13:45:05.797Z,20.87
2019-01-21T13:47:59.918Z,19.47
2019-01-21T13:50:55.267Z,21.83
2019-01-21T13:54:02.884Z,19.90
2019-01-21T13:57:14.775Z,19.77
2019-01-21T14:00:09.696Z,19.93
2019-01-21T14:03:14.095Z,19.67
2019-01-21T14:06:37.847Z,19.00
2019-01-21T14:09:48.178Z,19.93
2019-01-21T14:12:43.418Z,21.37
2019-01-21T14:15:46.777Z,20.57
2019-01-21T14:18:53.073Z,20.47
2019-01-21T14:21:51.434Z,21.97
2019-01-21T14:24:48.813Z,18.87
2019-01-21T14:27:58.410Z,19.10
2019-01-21T14:31:09.795Z,18.90
2019-01-21T14:34:05.003Z,19.33
2019-01-21T14:37:13.261Z,18.93
2019-01-21T14:40:07.946Z,19.03
2019-01-21T14:43:17.096Z,20.37
2019-01-21T14:46:23.191Z,19.63
2019-01-21T14:49:22.491Z,21.53
2019-01-21T14:52:27.619Z,20.03
2019-01-21T14:55:20.405Z,20.83
2019-01-21T14:58:21.038Z,20.87
2019-01-21T15:01:24.581Z,20.80
2019-01-21T15:04:40.058Z,20.83
2019-01-21T15:07:56.308Z,20.57
2019-01-21T15:11:08.565Z,20.87
2019-01-21T15:14:08.865Z,22.17
2019-01-21T15:17:23.306Z,22.27
2019-01-21T15:20:25.135Z,21.57
2019-01-21T15:23:40.299Z,24.03
2019-01-21T15:26:27.035Z,22.90
2019-01-21T15:29:45.147Z,21.07
2019-01-21T15:32:51.436Z,23.47
2019-01-21T15:36:06.713Z,27.10
2019-01-21T15:39:16.499Z,24.60
2019-01-21T15:42:13.513Z,25.33
2019-01-21T15:45:26.336Z,23.50
2019-01-21T15:48:52.231Z,28.40
2019-01-21T15:52:06.647Z,29.43
2019-01-21T15:54:51.467Z,30.47
2019-01-21T15:57:57.632Z,31.00
2019-01-21T16:01:34.639Z,33.40
2019-01-21T16:04:34.535Z,27.40
2019-01-21T16:07:29.741Z,28.07
2019-01-21T16:10:20.440Z,28.43
2019-01-21T16:13:26.792Z,29.13
2019-01-21T16:16:31.286Z,29.30
2019-01-21T16:19:15.265Z,28.83
2019-01-21T16:22:31.012Z,30.10
2019-01-21T16:25:34.614Z,28.97
2019-01-21T16:28:53.250Z,27.70
2019-01-21T16:31:55.869Z,28.23
2019-01-21T16:34:50.348Z,29.17
2019-01-21T16:37:57.405Z,27.57
2019-01-21T16:41:12.027Z,27.20
2019-01-21T16:43:42.619Z,26.37
2019-01-21T16:46:17.526Z,27.10
2019-01-21T16:48:53.736Z,29.10
2019-01-21T16:51:23.203Z,31.07
2019-01-21T16:53:52.528Z,31.07
2019-01-21T16:56:21.334Z,32.17
2019-01-21T16:58:53.510Z,29.10
2019-01-21T17:01:33.377Z,30.43
2019-01-21T17:04:08.748Z,30.63
2019-01-21T17:06:39.498Z,29.87
2019-01-21T17:09:15.019Z,29.77
2019-01-21T17:11:44.002Z,28.73
2019-01-21T17:14:14.232Z,31.13
2019-01-21T17:16:44.315Z,31.00
2019-01-21T17:19:14.022Z,29.92
2019-01-21T17:21:43.398Z,30.67
2019-01-21T17:24:15.495Z,29.75
2019-01-21T17:26:48.130Z,28.20
2019-01-21T17:29:17.252Z,30.27
2019-01-21T17:31:46.512Z,29.25
2019-01-21T17:34:15.791Z,29.20
2019-01-21T17:36:45.031Z,28.13
2019-01-21T17:39:17.968Z,26.50
2019-01-21T17:41:51.364Z,26.23
2019-01-21T17:44:24.070Z,28.20
2019-01-21T17:46:53.924Z,25.40
2019-01-21T17:49:23.088Z,26.83
2019-01-21T17:51:52.131Z,27.37
2019-01-21T17:54:34.636Z,26.83
2019-01-21T17:57:00.029Z,26.80
2019-01-21T17:59:31.663Z,28.30
2019-01-21T18:02:02.815Z,27.27
2019-01-21T18:04:43.593Z,25.40
2019-01-21T18:07:15.286Z,26.60
2019-01-21T18:09:44.893Z,28.93
2019-01-21T18:12:20.261Z,29.00
2019-01-21T18:14:58.320Z,31.73
2019-01-21T18:17:35.051Z,30.70
2019-01-21T18:20:06.640Z,29.85
2019-01-21T18:22:36.697Z,31.33
2019-01-21T18:25:12.231Z,28.30
2019-01-21T18:27:41.706Z,29.02
2019-01-21T18:30:19.965Z,27.62
2019-01-21T18:32:52.895Z,29.23
2019-01-21T18:35:23.042Z,32.95
2019-01-21T18:37:58.891Z,34.60
2019-01-21T18:40:30.692Z,32.35
2019-01-21T18:43:03.189Z,29.98
2019-01-21T18:45:32.872Z,29.75
2019-01-21T18:48:07.646Z,28.60
2019-01-21T18:50:37.418Z,29.00
2019-01-21T18:53:09.098Z,30.05
2019-01-21T18:55:40.507Z,27.70
2019-01-21T18:58:20.612Z,26.82
2019-01-21T19:01:00.089Z,25.20
2019-01-21T19:03:37.590Z,27.20
2019-01-21T19:06:12.439Z,25.77
2019-01-21T19:08:43.909Z,27.43
2019-01-21T19:11:18.610Z,26.60
2019-01-21T19:13:50.922Z,25.40
2019-01-21T19:16:22.052Z,26.93
2019-01-21T19:18:57.207Z,27.73
2019-01-21T19:21:30.174Z,30.10
2019-01-21T19:24:03.519Z,28.43
2019-01-21T19:26:32.653Z,25.97
2019-01-21T19:29:02.251Z,28.73
2019-01-21T19:31:33.969Z,29.02
2019-01-21T19:34:04.415Z,28.15
2019-01-21T19:36:37.155Z,25.10
2019-01-21T19:39:17.373Z,29.45
2019-01-21T19:41:53.432Z,29.03
2019-01-21T19:44:30.066Z,29.05
2019-01-21T19:47:12.052Z,30.62
2019-01-21T19:49:45.535Z,26.60
2019-01-21T19:52:22.358Z,28.25
2019-01-21T19:55:04.249Z,27.05
2019-01-21T19:57:35.256Z,28.25
2019-01-21T20:00:06.769Z,26.80
2019-01-21T20:02:39.830Z,26.65
2019-01-21T20:05:10.840Z,25.45
2019-01-21T20:07:46.486Z,26.30
2019-01-21T20:10:24.455Z,25.75
2019-01-21T20:12:55.668Z,27.37
2019-01-21T20:15:25.132Z,26.68
2019-01-21T20:18:01.082Z,28.75
2019-01-21T20:20:35.870Z,27.73
2019-01-21T20:23:14.562Z,28.17
2019-01-21T20:25:47.783Z,29.00
2019-01-21T20:28:29.682Z,27.13
2019-01-21T20:31:04.261Z,28.12
2019-01-21T20:33:40.531Z,30.82
2019-01-21T20:36:14.340Z,32.10
2019-01-21T20:38:47.360Z,35.08
2019-01-21T20:41:31.656Z,33.78
2019-01-21T20:44:10.003Z,33.95
2019-01-21T20:46:43.229Z,35.48
2019-01-21T20:49:18.931Z,32.63
2019-01-21T20:51:52.706Z,31.60
2019-01-21T20:54:40.892Z,32.73
2019-01-21T20:57:15.360Z,31.25
2019-01-21T20:59:54.287Z,34.15
2019-01-21T21:02:31.534Z,32.53
2019-01-21T21:05:05.215Z,34.55
2019-01-21T21:07:38.542Z,31.75
2019-01-21T21:10:11.280Z,30.50
2019-01-21T21:12:40.746Z,31.70
2019-01-21T21:15:15.106Z,31.70
2019-01-21T21:17:50.386Z,29.75
2019-01-21T21:20:22.447Z,31.42
2019-01-21T21:22:53.861Z,30.55
2019-01-21T21:25:28.775Z,31.40
2019-01-21T21:28:11.203Z,30.57
2019-01-21T21:30:50.414Z,30.17
2019-01-21T21:33:21.884Z,29.57
2019-01-21T21:35:51.793Z,29.80
2019-01-21T21:38:23.595Z,30.60
2019-01-21T21:40:55.683Z,30.82
2019-01-21T21:43:28.390Z,30.12
2019-01-21T21:46:02.332Z,27.40
2019-01-21T21:48:33.130Z,29.20
2019-01-21T21:51:12.252Z,28.00
2019-01-21T21:53:45.292Z,28.73
2019-01-21T21:56:22.240Z,28.85
2019-01-21T21:58:53.111Z,30.57
2019-01-21T22:01:25.829Z,29.90
2019-01-21T22:03:59.893Z,26.50
2019-01-21T22:06:30.896Z,28.87
2019-01-21T22:09:01.339Z,30.35
2019-01-21T22:11:34.360Z,28.30
2019-01-21T22:14:04.164Z,28.98
2019-01-21T22:16:33.730Z,28.00
2019-01-21T22:19:09.768Z,29.92
2019-01-21T22:21:44.760Z,27.25
2019-01-21T22:24:14.265Z,25.82
2019-01-21T22:26:44.150Z,28.90
2019-01-21T22:29:13.619Z,28.00
2019-01-21T22:31:42.746Z,27.25
2019-01-21T22:34:13.945Z,26.95
2019-01-21T22:36:42.837Z,27.22
2019-01-21T22:39:12.489Z,27.50
2019-01-21T22:41:41.917Z,26.12
2019-01-21T22:44:11.161Z,26.48
2019-01-21T22:46:40.525Z,25.62
2019-01-21T22:49:10.124Z,25.17
2019-01-21T22:51:45.235Z,25.90
2019-01-21T22:54:14.183Z,24.37
2019-01-21T22:56:46.918Z,27.37
2019-01-21T22:59:20.493Z,25.65
2019-01-21T23:01:50.158Z,26.10
2019-01-21T23:04:20.089Z,27.20
2019-01-21T23:06:50.898Z,26.52
2019-01-21T23:09:19.799Z,27.05
2019-01-21T23:11:52.421Z,25.95
2019-01-21T23:14:21.938Z,26.00
2019-01-21T23:16:53.713Z,26.10
2019-01-21T23:19:26.994Z,25.30
2019-01-21T23:21:56.548Z,25.72
2019-01-21T23:24:29.123Z,25.90
2019-01-21T23:27:04.588Z,26.80
2019-01-21T23:29:34.033Z,25.55
2019-01-21T23:32:04.082Z,24.40
2019-01-21T23:34:35.616Z,26.60
2019-01-21T23:37:05.913Z,24.47
2019-01-21T23:39:35.589Z,25.00
2019-01-21T23:42:06.401Z,25.45
2019-01-21T23:44:40.205Z,23.92
2019-01-21T23:47:09.842Z,25.55
2019-01-21T23:49:42.268Z,26.12
2019-01-21T23:52:14.107Z,24.60
2019-01-21T23:54:46.267Z,25.77
2019-01-21T23:57:16.170Z,24.90
2019-01-21T23:59:48.532Z,23.50
